createdAt,value
2016-06-12T00:00:58.264Z,24.77
2016-06-12T00:01:58.267Z,24.8
2016-06-12T00:02:58.285Z,24.8
2016-06-12T00:03:58.304Z,24.8
2016-06-12T00:04:58.166Z,24.77
2016-06-12T00:05:58.185Z,24.75
2016-06-12T00:06:58.330Z,24.75
2016-06-12T00:07:58.348Z,24.78
2016-06-12T00:08:58.376Z,24.78
2016-06-12T00:09:58.418Z,24.82
2016-06-12T00:10:58.475Z,24.74
2016-06-12T00:11:58.516Z,24.74
2016-06-12T00:12:58.557Z,24.8
2016-06-12T00:13:58.613Z,24.78
2016-06-12T00:14:58.629Z,24.74
2016-06-12T00:15:58.647Z,24.74
2016-06-12T00:16:58.679Z,24.7
2016-06-12T00:17:58.696Z,24.78
2016-06-12T00:18:58.722Z,24.75
2016-06-12T00:19:59.715Z,24.74
2016-06-12T00:20:58.754Z,24.78
2016-06-12T00:21:58.762Z,24.78
2016-06-12T00:22:58.786Z,24.77
2016-06-12T00:23:58.792Z,24.75
2016-06-12T00:24:58.812Z,24.74
2016-06-12T00:25:58.661Z,24.77
2016-06-12T00:26:58.838Z,24.69
2016-06-12T00:27:58.843Z,24.74
2016-06-12T00:28:58.863Z,24.71
2016-06-12T00:29:58.882Z,24.75
2016-06-12T00:30:58.885Z,24.8
2016-06-12T00:31:58.889Z,24.8
2016-06-12T00:32:58.908Z,24.8
2016-06-12T00:33:58.912Z,24.77
2016-06-12T00:34:59.930Z,24.75
2016-06-12T00:35:58.933Z,24.74
2016-06-12T00:36:58.937Z,24.74
2016-06-12T00:37:58.956Z,24.71
2016-06-12T00:38:58.975Z,24.74
2016-06-12T00:39:58.979Z,24.71
2016-06-12T00:40:58.996Z,24.77
2016-06-12T00:41:59.000Z,24.69
2016-06-12T00:42:59.018Z,24.78
2016-06-12T00:43:59.178Z,24.74
2016-06-12T00:44:59.025Z,24.74
2016-06-12T00:45:59.044Z,24.75
2016-06-12T00:46:59.062Z,24.77
2016-06-12T00:47:59.065Z,24.7
2016-06-12T00:48:59.084Z,24.69
2016-06-12T00:50:00.369Z,24.77
2016-06-12T00:50:59.199Z,24.69
2016-06-12T00:51:59.109Z,24.7
2016-06-12T00:52:59.111Z,24.75
2016-06-12T00:53:58.990Z,24.69
2016-06-12T00:54:59.134Z,24.78
2016-06-12T00:55:59.152Z,24.71
2016-06-12T00:56:59.171Z,24.7
2016-06-12T00:57:59.174Z,24.77
2016-06-12T00:58:59.177Z,24.7
2016-06-12T00:59:59.212Z,24.75
2016-06-12T01:00:59.215Z,24.77
2016-06-12T01:01:59.218Z,24.69
2016-06-12T01:02:59.236Z,24.7
2016-06-12T01:03:59.256Z,24.67
2016-06-12T01:04:59.445Z,24.7
2016-06-12T01:05:59.448Z,24.67
2016-06-12T01:06:59.279Z,24.71
2016-06-12T01:07:59.283Z,24.71
2016-06-12T01:08:59.285Z,24.71
2016-06-12T01:09:59.305Z,24.77
2016-06-12T01:10:59.308Z,24.71
2016-06-12T01:11:59.326Z,24.69
2016-06-12T01:12:59.345Z,24.67
2016-06-12T01:13:59.348Z,24.75
2016-06-12T01:14:59.367Z,24.61
2016-06-12T01:15:59.355Z,24.7
2016-06-12T01:16:59.373Z,24.67
2016-06-12T01:17:59.377Z,24.75
2016-06-12T01:18:59.395Z,24.66
2016-06-12T01:19:59.288Z,24.75
2016-06-12T01:20:59.651Z,24.74
2016-06-12T01:21:59.435Z,24.64
2016-06-12T01:22:59.439Z,24.74
2016-06-12T01:23:59.442Z,24.74
2016-06-12T01:24:59.460Z,24.69
2016-06-12T01:25:59.479Z,24.66
2016-06-12T01:26:59.326Z,24.64
2016-06-12T01:27:59.501Z,24.7
2016-06-12T01:28:59.519Z,24.67
2016-06-12T01:29:59.522Z,24.71
2016-06-12T01:30:59.526Z,24.63
2016-06-12T01:31:59.528Z,24.64
2016-06-12T01:32:59.563Z,24.69
2016-06-12T01:33:59.567Z,24.66
2016-06-12T01:35:00.538Z,24.7
2016-06-12T01:35:59.854Z,24.69
2016-06-12T01:36:59.591Z,24.64
2016-06-12T01:37:59.594Z,24.61
2016-06-12T01:38:59.613Z,24.67
2016-06-12T01:39:59.631Z,24.7
2016-06-12T01:40:59.635Z,24.75
2016-06-12T01:41:59.637Z,24.69
2016-06-12T01:42:59.656Z,24.74
2016-06-12T01:43:59.706Z,24.66
2016-06-12T01:44:59.679Z,24.71
2016-06-12T01:45:59.682Z,24.71
2016-06-12T01:46:59.699Z,24.74
2016-06-12T01:47:59.703Z,24.71
2016-06-12T01:48:59.706Z,24.75
2016-06-12T01:49:59.975Z,24.75
2016-06-12T01:51:00.369Z,24.69
2016-06-12T01:51:59.747Z,24.74
2016-06-12T01:52:59.750Z,24.74
2016-06-12T01:53:59.768Z,24.69
2016-06-12T01:54:59.788Z,24.74
2016-06-12T01:55:59.790Z,24.74
2016-06-12T01:56:59.808Z,24.7
2016-06-12T01:57:59.812Z,24.71
2016-06-12T01:58:59.814Z,24.71
2016-06-12T01:59:59.850Z,24.71
2016-06-12T02:00:59.853Z,24.71
2016-06-12T02:01:59.856Z,24.7
2016-06-12T02:02:59.859Z,24.54
2016-06-12T02:03:59.877Z,24.69
2016-06-12T02:05:00.240Z,24.66
2016-06-12T02:06:00.540Z,24.74
2016-06-12T02:06:59.918Z,24.71
2016-06-12T02:07:59.921Z,24.66
2016-06-12T02:08:59.940Z,24.71
2016-06-12T02:09:59.928Z,24.61
2016-06-12T02:10:59.962Z,24.7
2016-06-12T02:11:59.965Z,24.66
2016-06-12T02:12:59.999Z,24.67
2016-06-12T02:13:59.986Z,24.69
2016-06-12T02:14:59.833Z,24.64
2016-06-12T02:16:00.008Z,24.59
2016-06-12T02:17:00.011Z,24.61
2016-06-12T02:18:00.030Z,24.56
2016-06-12T02:19:00.048Z,24.59
2016-06-12T02:20:00.301Z,24.59
2016-06-12T02:21:00.179Z,24.56
2016-06-12T02:22:00.340Z,24.61
2016-06-12T02:23:00.107Z,24.66
2016-06-12T02:24:00.095Z,24.58
2016-06-12T02:25:00.098Z,24.56
2016-06-12T02:26:00.117Z,24.56
2016-06-12T02:27:00.120Z,24.55
2016-06-12T02:28:00.138Z,24.55
2016-06-12T02:29:00.157Z,24.56
2016-06-12T02:30:00.160Z,24.64
2016-06-12T02:31:00.163Z,24.56
2016-06-12T02:32:00.198Z,24.56
2016-06-12T02:33:00.202Z,24.59
2016-06-12T02:34:00.219Z,24.58
2016-06-12T02:35:00.207Z,24.59
2016-06-12T02:36:00.303Z,24.59
2016-06-12T02:37:00.228Z,24.55
2016-06-12T02:38:00.232Z,24.63
2016-06-12T02:39:00.110Z,24.56
2016-06-12T02:40:00.301Z,24.66
2016-06-12T02:41:00.272Z,24.52
2016-06-12T02:42:00.291Z,24.59
2016-06-12T02:43:00.294Z,24.52
2016-06-12T02:44:00.313Z,24.59
2016-06-12T02:45:00.316Z,24.55
2016-06-12T02:46:00.319Z,24.56
2016-06-12T02:47:00.181Z,24.59
2016-06-12T02:48:00.340Z,24.59
2016-06-12T02:49:00.343Z,24.59
2016-06-12T02:50:00.878Z,24.66
2016-06-12T02:51:00.912Z,24.59
2016-06-12T02:52:00.385Z,24.59
2016-06-12T02:53:00.418Z,24.51
2016-06-12T02:54:00.405Z,24.51
2016-06-12T02:55:00.425Z,24.61
2016-06-12T02:56:00.428Z,24.63
2016-06-12T02:57:00.430Z,24.58
2016-06-12T02:58:00.465Z,24.55
2016-06-12T02:59:00.468Z,24.55
2016-06-12T03:00:00.471Z,24.63
2016-06-12T03:01:00.474Z,24.61
2016-06-12T03:02:00.493Z,24.52
2016-06-12T03:03:00.511Z,24.54
2016-06-12T03:04:00.514Z,24.61
2016-06-12T03:05:00.534Z,24.55
2016-06-12T03:06:01.427Z,24.54
2016-06-12T03:07:00.539Z,24.61
2016-06-12T03:08:00.559Z,24.61
2016-06-12T03:09:00.562Z,24.52
2016-06-12T03:10:00.579Z,24.55
2016-06-12T03:11:00.599Z,24.61
2016-06-12T03:12:00.602Z,24.52
2016-06-12T03:13:00.605Z,24.54
2016-06-12T03:14:00.624Z,24.56
2016-06-12T03:15:00.627Z,24.56
2016-06-12T03:16:00.662Z,24.54
2016-06-12T03:17:00.648Z,24.55
2016-06-12T03:18:00.667Z,24.51
2016-06-12T03:19:00.685Z,24.55
2016-06-12T03:20:00.688Z,24.51
2016-06-12T03:21:01.146Z,24.59
2016-06-12T03:22:00.726Z,24.61
2016-06-12T03:23:00.729Z,24.58
2016-06-12T03:24:00.733Z,24.52
2016-06-12T03:25:00.736Z,24.63
2016-06-12T03:26:00.754Z,24.54
2016-06-12T03:27:00.757Z,24.52
2016-06-12T03:28:00.776Z,24.55
2016-06-12T03:29:00.795Z,24.55
2016-06-12T03:30:00.783Z,24.61
2016-06-12T03:31:00.801Z,24.59
2016-06-12T03:32:00.804Z,24.54
2016-06-12T03:33:00.823Z,24.54
2016-06-12T03:34:00.826Z,24.63
2016-06-12T03:35:00.845Z,24.54
2016-06-12T03:36:01.222Z,24.59
2016-06-12T03:37:00.866Z,24.55
2016-06-12T03:38:00.885Z,24.59
2016-06-12T03:39:00.888Z,24.63
2016-06-12T03:40:00.907Z,24.58
2016-06-12T03:41:00.910Z,24.55
2016-06-12T03:42:00.929Z,24.63
2016-06-12T03:43:00.931Z,24.55
2016-06-12T03:44:00.950Z,24.56
2016-06-12T03:45:00.969Z,24.58
2016-06-12T03:46:00.972Z,24.59
2016-06-12T03:47:00.819Z,24.55
2016-06-12T03:48:00.994Z,24.51
2016-06-12T03:49:00.996Z,24.61
2016-06-12T03:50:01.000Z,24.59
2016-06-12T03:51:01.019Z,24.59
2016-06-12T03:52:01.022Z,24.55
2016-06-12T03:53:01.040Z,24.63
2016-06-12T03:54:01.059Z,24.59
2016-06-12T03:55:01.063Z,24.56
2016-06-12T03:56:01.081Z,24.59
2016-06-12T03:57:01.084Z,24.59
2016-06-12T03:58:00.930Z,24.59
2016-06-12T03:59:01.105Z,24.55
2016-06-12T04:00:01.109Z,24.58
2016-06-12T04:01:01.128Z,24.56
2016-06-12T04:02:01.130Z,24.54
2016-06-12T04:03:01.149Z,24.59
2016-06-12T04:04:01.153Z,24.59
2016-06-12T04:05:01.171Z,24.55
2016-06-12T04:06:01.612Z,24.55
2016-06-12T04:07:01.177Z,24.55
2016-06-12T04:08:01.196Z,24.66
2016-06-12T04:09:01.214Z,24.59
2016-06-12T04:10:01.217Z,24.56
2016-06-12T04:11:01.236Z,24.56
2016-06-12T04:12:01.239Z,24.49
2016-06-12T04:13:01.258Z,24.56
2016-06-12T04:14:01.262Z,24.52
2016-06-12T04:15:01.264Z,24.54
2016-06-12T04:16:01.283Z,24.61
2016-06-12T04:17:01.286Z,24.59
2016-06-12T04:18:01.289Z,24.58
2016-06-12T04:19:01.307Z,24.49
2016-06-12T04:20:01.327Z,24.58
2016-06-12T04:21:01.345Z,24.58
2016-06-12T04:22:01.348Z,24.59
2016-06-12T04:23:01.367Z,24.59
2016-06-12T04:24:01.370Z,24.59
2016-06-12T04:25:01.374Z,24.55
2016-06-12T04:26:01.251Z,24.64
2016-06-12T04:27:01.394Z,24.58
2016-06-12T04:28:01.413Z,24.56
2016-06-12T04:29:01.417Z,24.58
2016-06-12T04:30:01.436Z,24.54
2016-06-12T04:31:01.439Z,24.59
2016-06-12T04:32:01.456Z,24.56
2016-06-12T04:33:01.460Z,24.56
2016-06-12T04:34:01.479Z,24.58
2016-06-12T04:35:01.482Z,24.52
2016-06-12T04:36:01.485Z,24.55
2016-06-12T04:37:01.504Z,24.55
2016-06-12T04:38:01.508Z,24.55
2016-06-12T04:39:01.385Z,24.59
2016-06-12T04:40:01.544Z,24.55
2016-06-12T04:41:01.392Z,24.64
2016-06-12T04:42:01.551Z,24.55
2016-06-12T04:43:01.413Z,24.58
2016-06-12T04:44:01.572Z,24.59
2016-06-12T04:45:01.591Z,24.54
2016-06-12T04:46:01.610Z,24.63
2016-06-12T04:47:01.613Z,24.63
2016-06-12T04:48:01.616Z,24.56
2016-06-12T04:49:01.634Z,24.59
2016-06-12T04:50:01.481Z,24.61
2016-06-12T04:51:02.312Z,24.54
2016-06-12T04:52:02.129Z,24.59
2016-06-12T04:53:01.521Z,24.55
2016-06-12T04:54:01.681Z,24.58
2016-06-12T04:55:01.685Z,24.58
2016-06-12T04:56:01.703Z,24.63
2016-06-12T04:57:01.721Z,24.61
2016-06-12T04:58:01.725Z,24.59
2016-06-12T04:59:01.728Z,24.69
2016-06-12T05:00:01.746Z,24.67
2016-06-12T05:01:01.765Z,24.66
2016-06-12T05:02:01.612Z,24.64
2016-06-12T05:03:01.787Z,24.71
2016-06-12T05:04:01.790Z,24.63
2016-06-12T05:05:01.808Z,24.63
2016-06-12T05:06:02.187Z,24.74
2016-06-12T05:07:01.831Z,24.71
2016-06-12T05:08:01.833Z,24.7
2016-06-12T05:09:01.836Z,24.66
2016-06-12T05:10:01.856Z,24.63
2016-06-12T05:11:01.874Z,24.74
2016-06-12T05:12:01.876Z,24.75
2016-06-12T05:13:01.880Z,24.61
2016-06-12T05:14:01.883Z,24.66
2016-06-12T05:15:01.902Z,24.64
2016-06-12T05:16:01.920Z,24.7
2016-06-12T05:17:01.939Z,24.71
2016-06-12T05:18:01.786Z,24.66
2016-06-12T05:19:01.946Z,24.7
2016-06-12T05:20:01.979Z,24.69
2016-06-12T05:21:02.295Z,24.71
2016-06-12T05:22:02.299Z,24.71
2016-06-12T05:23:01.989Z,24.69
2016-06-12T05:24:02.007Z,24.74
2016-06-12T05:25:02.027Z,24.63
2016-06-12T05:26:02.029Z,24.74
2016-06-12T05:27:02.033Z,24.7
2016-06-12T05:28:02.051Z,24.64
2016-06-12T05:29:01.898Z,24.67
2016-06-12T05:30:02.057Z,24.71
2016-06-12T05:31:02.077Z,24.64
2016-06-12T05:32:01.782Z,24.7
2016-06-12T05:33:02.114Z,24.66
2016-06-12T05:34:02.116Z,24.74
2016-06-12T05:35:02.120Z,24.74
2016-06-12T05:36:02.622Z,24.7
2016-06-12T05:37:02.173Z,24.7
2016-06-12T05:38:02.160Z,24.7
2016-06-12T05:39:02.163Z,24.63
2016-06-12T05:40:02.182Z,24.69
2016-06-12T05:41:02.185Z,24.61
2016-06-12T05:42:02.188Z,24.64
2016-06-12T05:43:02.207Z,24.66
2016-06-12T05:44:02.225Z,24.74
2016-06-12T05:45:02.228Z,24.66
2016-06-12T05:46:02.247Z,24.67
2016-06-12T05:47:02.281Z,24.7
2016-06-12T05:48:02.112Z,24.63
2016-06-12T05:49:02.271Z,24.67
2016-06-12T05:50:02.274Z,24.7
2016-06-12T05:51:02.294Z,24.7
2016-06-12T05:52:02.156Z,24.74
2016-06-12T05:53:02.316Z,24.7
2016-06-12T05:54:02.162Z,24.74
2016-06-12T05:55:02.181Z,24.7
2016-06-12T05:56:02.184Z,24.61
2016-06-12T05:57:02.359Z,24.7
2016-06-12T05:58:02.363Z,24.67
2016-06-12T05:59:02.224Z,24.75
2016-06-12T06:00:02.384Z,24.74
2016-06-12T06:01:02.403Z,24.69
2016-06-12T06:02:02.421Z,24.77
2016-06-12T06:03:02.409Z,24.74
2016-06-12T06:04:02.427Z,24.71
2016-06-12T06:05:02.431Z,24.67
2016-06-12T06:06:02.308Z,24.66
2016-06-12T06:07:02.156Z,24.7
2016-06-12T06:08:02.487Z,24.64
2016-06-12T06:09:02.490Z,24.69
2016-06-12T06:10:02.493Z,24.7
2016-06-12T06:11:02.496Z,24.75
2016-06-12T06:12:02.514Z,24.71
2016-06-12T06:13:02.517Z,24.7
2016-06-12T06:14:02.536Z,24.7
2016-06-12T06:15:02.540Z,24.67
2016-06-12T06:16:02.558Z,24.71
2016-06-12T06:17:02.561Z,24.71
2016-06-12T06:18:02.596Z,24.77
2016-06-12T06:19:02.599Z,24.74
2016-06-12T06:20:02.602Z,24.7
2016-06-12T06:21:02.635Z,24.71
2016-06-12T06:22:02.592Z,24.75
2016-06-12T06:23:02.642Z,24.78
2016-06-12T06:24:02.645Z,24.7
2016-06-12T06:25:02.648Z,24.7
2016-06-12T06:26:02.668Z,24.8
2016-06-12T06:27:02.670Z,24.8
2016-06-12T06:28:02.673Z,24.75
2016-06-12T06:29:02.692Z,24.85
2016-06-12T06:30:02.695Z,24.77
2016-06-12T06:31:02.714Z,24.8
2016-06-12T06:32:02.732Z,24.85
2016-06-12T06:33:02.736Z,24.85
2016-06-12T06:34:02.754Z,24.8
2016-06-12T06:35:02.756Z,24.75
2016-06-12T06:36:02.870Z,24.85
2016-06-12T06:37:03.326Z,24.83
2016-06-12T06:38:02.782Z,24.77
2016-06-12T06:39:02.800Z,24.8
2016-06-12T06:40:02.820Z,24.8
2016-06-12T06:41:02.823Z,24.86
2016-06-12T06:42:02.841Z,24.9
2016-06-12T06:43:02.688Z,24.9
2016-06-12T06:44:02.847Z,24.92
2016-06-12T06:45:02.866Z,24.9
2016-06-12T06:46:02.869Z,24.96
2016-06-12T06:47:02.888Z,24.87
2016-06-12T06:48:02.907Z,24.92
2016-06-12T06:49:02.909Z,24.83
2016-06-12T06:50:02.928Z,24.92
2016-06-12T06:51:02.947Z,24.89
2016-06-12T06:52:03.262Z,24.89
2016-06-12T06:53:02.953Z,24.9
2016-06-12T06:54:02.956Z,24.83
2016-06-12T06:55:02.974Z,24.89
2016-06-12T06:56:02.993Z,24.92
2016-06-12T06:57:02.997Z,24.9
2016-06-12T06:58:03.016Z,24.94
2016-06-12T06:59:03.018Z,24.92
2016-06-12T07:00:03.022Z,24.96
2016-06-12T07:01:03.056Z,24.97
2016-06-12T07:02:03.059Z,24.89
2016-06-12T07:03:03.062Z,25.01
2016-06-12T07:04:03.065Z,24.97
2016-06-12T07:05:03.099Z,24.92
2016-06-12T07:06:03.102Z,24.97
2016-06-12T07:07:04.075Z,24.94
2016-06-12T07:08:03.125Z,24.96
2016-06-12T07:09:03.112Z,25
2016-06-12T07:10:03.130Z,25.08
2016-06-12T07:11:03.149Z,25.09
2016-06-12T07:12:03.152Z,25.02
2016-06-12T07:13:03.171Z,25.11
2016-06-12T07:14:03.189Z,25.04
2016-06-12T07:15:03.036Z,25.04
2016-06-12T07:16:03.196Z,25.15
2016-06-12T07:17:03.199Z,25.07
2016-06-12T07:18:03.217Z,25.05
2016-06-12T07:19:03.236Z,25.05
2016-06-12T07:20:03.239Z,25.05
2016-06-12T07:21:03.258Z,25.09
2016-06-12T07:22:03.714Z,25.09
2016-06-12T07:23:03.280Z,25.09
2016-06-12T07:24:03.283Z,25.07
2016-06-12T07:25:03.301Z,25.08
2016-06-12T07:26:03.305Z,25.07
2016-06-12T07:27:03.322Z,25.07
2016-06-12T07:28:03.325Z,25.11
2016-06-12T07:29:03.345Z,25.07
2016-06-12T07:30:03.348Z,25.08
2016-06-12T07:31:03.351Z,24.96
2016-06-12T07:32:03.370Z,24.97
2016-06-12T07:33:03.388Z,25.05
2016-06-12T07:34:03.391Z,25.04
2016-06-12T07:35:03.410Z,24.96
2016-06-12T07:36:03.413Z,25.04
2016-06-12T07:37:04.213Z,24.93
2016-06-12T07:38:03.436Z,24.92
2016-06-12T07:39:03.454Z,24.9
2016-06-12T07:40:03.457Z,24.96
2016-06-12T07:41:03.476Z,24.93
2016-06-12T07:42:03.479Z,25.04
2016-06-12T07:43:03.497Z,25.05
2016-06-12T07:44:03.516Z,24.94
2016-06-12T07:45:03.519Z,25.05
2016-06-12T07:46:03.522Z,24.92
2016-06-12T07:47:03.541Z,25.02
2016-06-12T07:48:03.544Z,25.08
2016-06-12T07:49:03.562Z,24.97
2016-06-12T07:50:03.565Z,25
2016-06-12T07:51:03.584Z,25.04
2016-06-12T07:52:03.603Z,25.01
2016-06-12T07:53:03.591Z,25.02
2016-06-12T07:54:03.625Z,25.02
2016-06-12T07:55:03.628Z,25.04
2016-06-12T07:56:03.631Z,25.04
2016-06-12T07:57:03.634Z,25.04
2016-06-12T07:58:03.653Z,24.97
2016-06-12T07:59:03.656Z,25.09
2016-06-12T08:00:03.674Z,25.05
2016-06-12T08:01:03.693Z,25.08
2016-06-12T08:02:03.697Z,25.04
2016-06-12T08:03:03.699Z,25.07
2016-06-12T08:04:03.719Z,25.08
2016-06-12T08:05:03.721Z,25.12
2016-06-12T08:06:03.739Z,25.02
2016-06-12T08:07:03.603Z,25.05
2016-06-12T08:08:03.761Z,25.01
2016-06-12T08:09:03.781Z,25.07
2016-06-12T08:10:03.784Z,25.08
2016-06-12T08:11:03.802Z,25.09
2016-06-12T08:12:03.805Z,25.05
2016-06-12T08:13:03.824Z,25.17
2016-06-12T08:14:03.827Z,25.12
2016-06-12T08:15:03.830Z,25.07
2016-06-12T08:16:03.848Z,25.09
2016-06-12T08:17:03.851Z,25.15
2016-06-12T08:18:03.870Z,25.08
2016-06-12T08:19:03.890Z,25.19
2016-06-12T08:20:03.735Z,25.09
2016-06-12T08:21:03.911Z,25.08
2016-06-12T08:22:03.914Z,25.09
2016-06-12T08:23:03.917Z,25.09
2016-06-12T08:24:03.952Z,25.08
2016-06-12T08:25:03.939Z,25.05
2016-06-12T08:26:03.974Z,25.12
2016-06-12T08:27:03.976Z,25.14
2016-06-12T08:28:03.979Z,25.2
2016-06-12T08:29:03.999Z,25.17
2016-06-12T08:30:04.001Z,25.08
2016-06-12T08:31:04.005Z,25.09
2016-06-12T08:32:04.022Z,25.09
2016-06-12T08:33:04.025Z,25.11
2016-06-12T08:34:04.045Z,25.09
2016-06-12T08:35:04.047Z,25.09
2016-06-12T08:36:04.067Z,25.11
2016-06-12T08:37:03.929Z,25.11
2016-06-12T08:38:04.088Z,25.12
2016-06-12T08:39:04.091Z,25.11
2016-06-12T08:40:04.110Z,25.19
2016-06-12T08:41:04.129Z,25.19
2016-06-12T08:42:04.133Z,25.14
2016-06-12T08:43:04.151Z,25.19
2016-06-12T08:44:04.153Z,25.15
2016-06-12T08:45:04.267Z,25.17
2016-06-12T08:46:04.175Z,25.22
2016-06-12T08:47:04.022Z,25.22
2016-06-12T08:48:04.197Z,25.17
2016-06-12T08:49:04.216Z,25.14
2016-06-12T08:50:04.063Z,25.11
2016-06-12T08:51:04.066Z,25.11
2016-06-12T08:52:04.475Z,25.2
2016-06-12T08:53:04.478Z,25.17
2016-06-12T08:54:04.263Z,25.19
2016-06-12T08:55:04.266Z,25.2
2016-06-12T08:56:04.284Z,25.2
2016-06-12T08:57:04.288Z,25.17
2016-06-12T08:58:04.307Z,25.17
2016-06-12T08:59:04.325Z,25.17
2016-06-12T09:00:04.327Z,25.14
2016-06-12T09:01:04.347Z,25.2
2016-06-12T09:02:04.350Z,25.22
2016-06-12T09:03:04.368Z,25.07
2016-06-12T09:04:04.371Z,25.08
2016-06-12T09:05:04.374Z,25.2
2016-06-12T09:06:04.409Z,25.19
2016-06-12T09:07:05.177Z,25.15
2016-06-12T09:08:04.400Z,25.17
2016-06-12T09:09:04.261Z,25.22
2016-06-12T09:10:04.437Z,25.17
2016-06-12T09:11:04.456Z,25.15
2016-06-12T09:12:04.458Z,25.23
2016-06-12T09:13:04.461Z,25.15
2016-06-12T09:14:04.325Z,25.22
2016-06-12T09:15:04.368Z,25.22
2016-06-12T09:16:04.584Z,25.19
2016-06-12T09:17:04.628Z,25.15
2016-06-12T09:18:04.688Z,25.22
2016-06-12T09:19:04.590Z,25.26
2016-06-12T09:20:04.764Z,25.24
2016-06-12T09:21:04.797Z,25.29
2016-06-12T09:22:05.362Z,25.26
2016-06-12T09:23:04.708Z,25.23
2016-06-12T09:24:04.866Z,25.3
2016-06-12T09:25:04.889Z,25.29
2016-06-12T09:26:04.897Z,25.33
2016-06-12T09:27:04.749Z,25.3
2016-06-12T09:28:04.930Z,25.3
2016-06-12T09:29:04.938Z,25.27
2016-06-12T09:30:04.959Z,25.27
2016-06-12T09:31:04.963Z,25.3
2016-06-12T09:32:05.000Z,25.3
2016-06-12T09:33:05.004Z,25.38
2016-06-12T09:34:05.009Z,25.34
2016-06-12T09:35:05.028Z,25.3
2016-06-12T09:36:05.032Z,25.33
2016-06-12T09:37:04.943Z,25.32
2016-06-12T09:38:05.649Z,25.38
2016-06-12T09:39:05.076Z,25.33
2016-06-12T09:40:05.079Z,25.41
2016-06-12T09:41:05.082Z,25.41
2016-06-12T09:42:05.101Z,25.45
2016-06-12T09:43:05.120Z,25.47
2016-06-12T09:44:05.124Z,25.52
2016-06-12T09:45:05.346Z,25.51
2016-06-12T09:46:05.146Z,25.48
2016-06-12T09:47:05.164Z,25.47
2016-06-12T09:48:05.027Z,25.52
2016-06-12T09:49:05.186Z,25.57
2016-06-12T09:50:05.189Z,25.44
2016-06-12T09:51:05.208Z,25.45
2016-06-12T09:52:05.226Z,25.52
2016-06-12T09:53:05.963Z,25.48
2016-06-12T09:54:05.233Z,25.48
2016-06-12T09:55:05.252Z,25.49
2016-06-12T09:56:05.254Z,25.52
2016-06-12T09:57:05.272Z,25.57
2016-06-12T09:58:05.276Z,25.59
2016-06-12T09:59:05.295Z,25.52
2016-06-12T10:00:05.314Z,25.56
2016-06-12T10:01:05.317Z,25.47
2016-06-12T10:02:05.335Z,25.51
2016-06-12T10:03:05.338Z,25.57
2016-06-12T10:04:05.341Z,25.59
2016-06-12T10:05:05.360Z,25.56
2016-06-12T10:06:05.379Z,25.56
2016-06-12T10:07:05.819Z,25.56
2016-06-12T10:08:06.041Z,25.57
2016-06-12T10:09:05.404Z,25.48
2016-06-12T10:10:05.423Z,25.45
2016-06-12T10:11:05.425Z,25.44
2016-06-12T10:12:05.429Z,25.48
2016-06-12T10:13:05.447Z,25.39
2016-06-12T10:14:05.450Z,25.45
2016-06-12T10:15:05.469Z,25.38
2016-06-12T10:16:05.503Z,25.44
2016-06-12T10:17:05.491Z,25.48
2016-06-12T10:18:05.509Z,25.48
2016-06-12T10:19:05.513Z,25.48
2016-06-12T10:20:05.515Z,25.54
2016-06-12T10:21:05.534Z,25.51
2016-06-12T10:22:05.553Z,25.6
2016-06-12T10:23:05.556Z,25.54
2016-06-12T10:24:05.559Z,25.57
2016-06-12T10:25:05.422Z,25.47
2016-06-12T10:26:05.597Z,25.56
2016-06-12T10:27:05.600Z,25.54
2016-06-12T10:28:05.446Z,25.52
2016-06-12T10:29:05.621Z,25.56
2016-06-12T10:30:05.624Z,25.67
2016-06-12T10:31:05.644Z,25.7
2016-06-12T10:32:05.647Z,25.52
2016-06-12T10:33:05.666Z,25.59
2016-06-12T10:34:05.527Z,25.56
2016-06-12T10:35:05.687Z,25.52
2016-06-12T10:36:05.706Z,25.67
2016-06-12T10:37:05.709Z,25.63
2016-06-12T10:38:05.727Z,25.64
2016-06-12T10:39:05.730Z,25.69
2016-06-12T10:40:05.733Z,25.64
2016-06-12T10:41:05.736Z,25.56
2016-06-12T10:42:05.755Z,25.54
2016-06-12T10:43:05.774Z,25.56
2016-06-12T10:44:05.777Z,25.59
2016-06-12T10:45:05.842Z,25.56
2016-06-12T10:46:05.798Z,25.57
2016-06-12T10:47:05.833Z,25.51
2016-06-12T10:48:05.837Z,25.57
2016-06-12T10:49:05.840Z,25.62
2016-06-12T10:50:05.842Z,25.69
2016-06-12T10:51:05.861Z,25.66
2016-06-12T10:52:05.864Z,25.66
2016-06-12T10:53:05.726Z,25.7
2016-06-12T10:54:05.886Z,25.66
2016-06-12T10:55:05.904Z,25.67
2016-06-12T10:56:05.907Z,25.74
2016-06-12T10:57:05.926Z,25.64
2016-06-12T10:58:05.930Z,25.75
2016-06-12T10:59:05.791Z,25.7
2016-06-12T11:00:05.810Z,25.81
2016-06-12T11:01:05.813Z,25.86
2016-06-12T11:02:05.973Z,25.82
2016-06-12T11:03:05.992Z,25.82
2016-06-12T11:04:05.994Z,25.84
2016-06-12T11:05:06.014Z,25.76
2016-06-12T11:06:06.017Z,25.79
2016-06-12T11:07:06.034Z,25.79
2016-06-12T11:08:06.257Z,25.85
2016-06-12T11:09:06.057Z,25.82
2016-06-12T11:10:06.060Z,25.85
2016-06-12T11:11:06.078Z,25.79
2016-06-12T11:12:06.097Z,25.74
2016-06-12T11:13:06.100Z,25.67
2016-06-12T11:14:06.104Z,25.7
2016-06-12T11:15:06.123Z,25.63
2016-06-12T11:16:06.141Z,25.7
2016-06-12T11:17:06.160Z,25.75
2016-06-12T11:18:06.146Z,25.76
2016-06-12T11:19:06.010Z,25.76
2016-06-12T11:20:06.169Z,25.67
2016-06-12T11:21:06.188Z,25.74
2016-06-12T11:22:06.206Z,25.78
2016-06-12T11:23:06.240Z,25.81
2016-06-12T11:24:06.056Z,25.84
2016-06-12T11:25:06.231Z,25.84
2016-06-12T11:26:06.234Z,25.79
2016-06-12T11:27:06.252Z,25.79
2016-06-12T11:28:06.255Z,25.79
2016-06-12T11:29:06.275Z,25.78
2016-06-12T11:30:06.277Z,25.86
2016-06-12T11:31:06.296Z,25.91
2016-06-12T11:32:06.300Z,25.94
2016-06-12T11:33:06.318Z,25.93
2016-06-12T11:34:06.321Z,25.97
2016-06-12T11:35:06.340Z,26.03
2016-06-12T11:36:06.343Z,25.97
2016-06-12T11:37:06.363Z,26.07
2016-06-12T11:38:06.491Z,25.99
2016-06-12T11:39:06.400Z,25.89
2016-06-12T11:40:06.403Z,25.89
2016-06-12T11:41:06.405Z,25.86
2016-06-12T11:42:06.408Z,25.94
2016-06-12T11:43:06.426Z,25.79
2016-06-12T11:44:06.429Z,25.84
2016-06-12T11:45:06.496Z,25.81
2016-06-12T11:46:06.452Z,25.82
2016-06-12T11:47:06.314Z,25.79
2016-06-12T11:48:06.489Z,25.84
2016-06-12T11:49:06.492Z,25.81
2016-06-12T11:50:06.511Z,25.84
2016-06-12T11:51:06.530Z,25.88
2016-06-12T11:52:06.517Z,25.93
2016-06-12T11:53:06.693Z,25.88
2016-06-12T11:54:06.539Z,25.91
2016-06-12T11:55:06.558Z,25.94
2016-06-12T11:56:06.421Z,25.99
2016-06-12T11:57:06.579Z,25.97
2016-06-12T11:58:06.582Z,25.99
2016-06-12T11:59:06.601Z,25.96
2016-06-12T12:00:06.448Z,25.96
2016-06-12T12:01:06.623Z,25.94
2016-06-12T12:02:06.626Z,25.99
2016-06-12T12:03:06.645Z,25.94
2016-06-12T12:04:06.648Z,26
2016-06-12T12:05:06.666Z,26.01
2016-06-12T12:06:06.669Z,26.11
2016-06-12T12:07:06.688Z,26.06
2016-06-12T12:08:06.722Z,26.07
2016-06-12T12:09:06.725Z,26.07
2016-06-12T12:10:06.714Z,26.04
2016-06-12T12:11:06.731Z,26.06
2016-06-12T12:12:06.750Z,26.03
2016-06-12T12:13:06.754Z,26.01
2016-06-12T12:14:06.772Z,25.99
2016-06-12T12:15:06.775Z,25.97
2016-06-12T12:16:06.779Z,25.97
2016-06-12T12:17:06.797Z,26.04
2016-06-12T12:18:06.800Z,26.06
2016-06-12T12:19:06.820Z,25.96
2016-06-12T12:20:06.838Z,26
2016-06-12T12:21:06.857Z,26
2016-06-12T12:22:06.860Z,26.03
2016-06-12T12:23:06.722Z,25.99
2016-06-12T12:24:06.865Z,25.97
2016-06-12T12:25:06.744Z,26.06
2016-06-12T12:26:06.903Z,26.06
2016-06-12T12:27:06.905Z,26.06
2016-06-12T12:28:06.925Z,26.03
2016-06-12T12:29:06.928Z,26.11
2016-06-12T12:30:06.946Z,25.99
2016-06-12T12:31:06.950Z,26.07
2016-06-12T12:32:06.952Z,26.07
2016-06-12T12:33:06.816Z,26.09
2016-06-12T12:34:06.975Z,26.09
2016-06-12T12:35:06.993Z,26.07
2016-06-12T12:36:07.011Z,26.15
2016-06-12T12:37:07.014Z,26.09
2016-06-12T12:38:07.689Z,26.15
2016-06-12T12:39:07.037Z,26.07
2016-06-12T12:40:07.040Z,26.11
2016-06-12T12:41:07.058Z,26.12
2016-06-12T12:42:07.077Z,26.11
2016-06-12T12:43:07.077Z,26.12
2016-06-12T12:44:07.115Z,26.11
2016-06-12T12:45:06.959Z,26.04
2016-06-12T12:46:07.117Z,26.07
2016-06-12T12:47:07.120Z,26.06
2016-06-12T12:48:07.139Z,26.15
2016-06-12T12:49:07.142Z,26.11
2016-06-12T12:50:07.162Z,25.99
2016-06-12T12:51:07.165Z,26.07
2016-06-12T12:52:07.183Z,26.06
2016-06-12T12:53:07.674Z,26.03
2016-06-12T12:54:07.205Z,26.15
2016-06-12T12:55:07.208Z,26.07
2016-06-12T12:56:07.227Z,26.07